sensor_id;sensor_type;location;lat;lon;timestamp;temperature;humidity
59847;DHT22;45728;48.788;2.302;2023-04-05T00:01:41;6.70;99.90
59847;DHT22;45728;48.788;2.302;2023-04-05T00:04:08;6.70;99.90
59847;DHT22;45728;48.788;2.302;2023-04-05T00:06:34;6.50;99.90
59847;DHT22;45728;48.788;2.302;2023-04-05T00:09:03;6.50;99.90
59847;DHT22;45728;48.788;2.302;2023-04-05T00:11:31;6.40;99.90
59847;DHT22;45728;48.788;2.302;2023-04-05T00:13:59;6.40;99.90
59847;DHT22;45728;48.788;2.302;2023-04-05T00:16:26;6.40;99.90
59847;DHT22;45728;48.788;2.302;2023-04-05T00:18:54;6.40;99.90
59847;DHT22;45728;48.788;2.302;2023-04-05T00:21:21;6.50;99.90
59847;DHT22;45728;48.788;2.302;2023-04-05T00:23:49;6.40;99.90
59847;DHT22;45728;48.788;2.302;2023-04-05T00:26:17;6.40;99.90
59847;DHT22;45728;48.788;2.302;2023-04-05T00:28:43;6.40;99.90
59847;DHT22;45728;48.788;2.302;2023-04-05T00:31:10;6.40;99.90
59847;DHT22;45728;48.788;2.302;2023-04-05T00:33:36;6.40;99.90
59847;DHT22;45728;48.788;2.302;2023-04-05T00:38:39;6.50;99.90
59847;DHT22;45728;48.788;2.302;2023-04-05T00:41:05;6.30;99.90
59847;DHT22;45728;48.788;2.302;2023-04-05T00:43:31;6.10;99.90
59847;DHT22;45728;48.788;2.302;2023-04-05T00:45:57;6.10;99.90
59847;DHT22;45728;48.788;2.302;2023-04-05T00:48:24;6.00;99.90
59847;DHT22;45728;48.788;2.302;2023-04-05T00:50:51;6.00;99.90
59847;DHT22;45728;48.788;2.302;2023-04-05T00:53:18;6.10;99.90
59847;DHT22;45728;48.788;2.302;2023-04-05T00:55:48;6.20;99.90
59847;DHT22;45728;48.788;2.302;2023-04-05T00:58:16;6.30;99.90
59847;DHT22;45728;48.788;2.302;2023-04-05T01:01:06;6.30;99.90
59847;DHT22;45728;48.788;2.302;2023-04-05T01:03:40;6.50;99.90
59847;DHT22;45728;48.788;2.302;2023-04-05T01:11:24;6.30;99.90
59847;DHT22;45728;48.788;2.302;2023-04-05T01:13:57;6.30;99.90
59847;DHT22;45728;48.788;2.302;2023-04-05T01:16:24;6.30;99.90
59847;DHT22;45728;48.788;2.302;2023-04-05T01:18:54;6.30;99.90
59847;DHT22;45728;48.788;2.302;2023-04-05T01:24:32;6.30;99.90
59847;DHT22;45728;48.788;2.302;2023-04-05T01:27:09;6.20;99.90
59847;DHT22;45728;48.788;2.302;2023-04-05T01:37:33;6.10;99.90
59847;DHT22;45728;48.788;2.302;2023-04-05T01:39:59;6.10;99.90
59847;DHT22;45728;48.788;2.302;2023-04-05T01:42:26;6.20;99.90
59847;DHT22;45728;48.788;2.302;2023-04-05T01:44:54;6.20;99.90
59847;DHT22;45728;48.788;2.302;2023-04-05T01:47:20;6.10;99.90
59847;DHT22;45728;48.788;2.302;2023-04-05T01:49:46;6.10;99.90
59847;DHT22;45728;48.788;2.302;2023-04-05T01:52:13;6.10;99.90
59847;DHT22;45728;48.788;2.302;2023-04-05T01:54:39;6.10;99.90
59847;DHT22;45728;48.788;2.302;2023-04-05T01:57:05;6.10;99.90
59847;DHT22;45728;48.788;2.302;2023-04-05T01:59:31;6.10;99.90
59847;DHT22;45728;48.788;2.302;2023-04-05T02:01:57;6.00;99.90
59847;DHT22;45728;48.788;2.302;2023-04-05T02:04:23;5.90;99.90
59847;DHT22;45728;48.788;2.302;2023-04-05T02:06:49;5.80;99.90
59847;DHT22;45728;48.788;2.302;2023-04-05T02:09:15;5.90;99.90
59847;DHT22;45728;48.788;2.302;2023-04-05T02:11:42;5.80;99.90
59847;DHT22;45728;48.788;2.302;2023-04-05T02:14:08;5.80;99.90
59847;DHT22;45728;48.788;2.302;2023-04-05T02:16:35;5.70;99.90
59847;DHT22;45728;48.788;2.302;2023-04-05T02:19:01;5.50;99.90
59847;DHT22;45728;48.788;2.302;2023-04-05T02:21:27;5.50;99.90
59847;DHT22;45728;48.788;2.302;2023-04-05T02:23:53;5.50;99.90
59847;DHT22;45728;48.788;2.302;2023-04-05T02:26:38;5.40;99.90
59847;DHT22;45728;48.788;2.302;2023-04-05T02:29:24;5.40;99.90
59847;DHT22;45728;48.788;2.302;2023-04-05T02:32:08;5.40;99.90
59847;DHT22;45728;48.788;2.302;2023-04-05T02:34:54;5.40;99.90
59847;DHT22;45728;48.788;2.302;2023-04-05T02:37:20;5.30;99.90
59847;DHT22;45728;48.788;2.302;2023-04-05T02:39:47;5.10;99.90
59847;DHT22;45728;48.788;2.302;2023-04-05T02:42:13;5.00;99.90
59847;DHT22;45728;48.788;2.302;2023-04-05T02:44:39;4.90;99.90
59847;DHT22;45728;48.788;2.302;2023-04-05T02:47:05;4.90;99.90
59847;DHT22;45728;48.788;2.302;2023-04-05T02:49:31;4.90;99.90
59847;DHT22;45728;48.788;2.302;2023-04-05T02:51:57;4.90;99.90
59847;DHT22;45728;48.788;2.302;2023-04-05T02:54:23;5.00;99.90
59847;DHT22;45728;48.788;2.302;2023-04-05T02:56:49;4.90;99.90
59847;DHT22;45728;48.788;2.302;2023-04-05T02:59:15;5.00;99.90
59847;DHT22;45728;48.788;2.302;2023-04-05T03:01:42;5.00;99.90
59847;DHT22;45728;48.788;2.302;2023-04-05T03:04:09;5.00;99.90
59847;DHT22;45728;48.788;2.302;2023-04-05T03:06:38;5.00;99.90
59847;DHT22;45728;48.788;2.302;2023-04-05T03:09:04;4.90;99.90
59847;DHT22;45728;48.788;2.302;2023-04-05T03:11:31;5.00;99.90
59847;DHT22;45728;48.788;2.302;2023-04-05T03:13:57;5.00;99.90
59847;DHT22;45728;48.788;2.302;2023-04-05T03:16:23;4.90;99.90
59847;DHT22;45728;48.788;2.302;2023-04-05T03:18:50;4.90;99.90
59847;DHT22;45728;48.788;2.302;2023-04-05T03:21:16;4.80;99.90
59847;DHT22;45728;48.788;2.302;2023-04-05T03:23:43;4.80;99.90
59847;DHT22;45728;48.788;2.302;2023-04-05T03:26:11;4.70;99.90
59847;DHT22;45728;48.788;2.302;2023-04-05T03:28:40;4.70;99.90
59847;DHT22;45728;48.788;2.302;2023-04-05T03:31:10;4.70;99.90
59847;DHT22;45728;48.788;2.302;2023-04-05T03:33:36;4.80;99.90
59847;DHT22;45728;48.788;2.302;2023-04-05T03:36:04;4.70;99.90
59847;DHT22;45728;48.788;2.302;2023-04-05T03:38:30;4.70;99.90
59847;DHT22;45728;48.788;2.302;2023-04-05T03:40:57;4.70;99.90
59847;DHT22;45728;48.788;2.302;2023-04-05T03:43:23;4.80;99.90
59847;DHT22;45728;48.788;2.302;2023-04-05T03:45:49;4.80;99.90
59847;DHT22;45728;48.788;2.302;2023-04-05T03:48:15;4.90;99.90
59847;DHT22;45728;48.788;2.302;2023-04-05T03:50:45;4.80;99.90
59847;DHT22;45728;48.788;2.302;2023-04-05T03:53:12;4.80;99.90
59847;DHT22;45728;48.788;2.302;2023-04-05T03:55:38;4.90;99.90
59847;DHT22;45728;48.788;2.302;2023-04-05T03:58:05;5.00;99.90
59847;DHT22;45728;48.788;2.302;2023-04-05T04:00:31;4.90;99.90
59847;DHT22;45728;48.788;2.302;2023-04-05T04:02:57;4.80;99.90
59847;DHT22;45728;48.788;2.302;2023-04-05T04:05:23;4.60;99.90
59847;DHT22;45728;48.788;2.302;2023-04-05T04:07:49;4.50;99.90
59847;DHT22;45728;48.788;2.302;2023-04-05T04:10:16;4.50;99.90
59847;DHT22;45728;48.788;2.302;2023-04-05T04:12:42;4.40;99.90
59847;DHT22;45728;48.788;2.302;2023-04-05T04:15:09;4.40;99.90
59847;DHT22;45728;48.788;2.302;2023-04-05T04:17:36;4.40;99.90
59847;DHT22;45728;48.788;2.302;2023-04-05T04:20:05;4.40;99.90
59847;DHT22;45728;48.788;2.302;2023-04-05T04:22:39;4.30;99.90
59847;DHT22;45728;48.788;2.302;2023-04-05T04:25:10;4.30;99.90
59847;DHT22;45728;48.788;2.302;2023-04-05T04:27:39;4.30;99.90
59847;DHT22;45728;48.788;2.302;2023-04-05T04:30:10;4.20;99.90
59847;DHT22;45728;48.788;2.302;2023-04-05T04:32:38;4.30;99.90
59847;DHT22;45728;48.788;2.302;2023-04-05T04:35:17;4.40;99.90
59847;DHT22;45728;48.788;2.302;2023-04-05T04:37:52;4.50;99.90
59847;DHT22;45728;48.788;2.302;2023-04-05T04:40:20;4.50;99.90
59847;DHT22;45728;48.788;2.302;2023-04-05T04:42:48;4.40;99.90
59847;DHT22;45728;48.788;2.302;2023-04-05T04:45:18;4.40;99.90
59847;DHT22;45728;48.788;2.302;2023-04-05T04:47:45;4.50;99.90
59847;DHT22;45728;48.788;2.302;2023-04-05T04:50:12;4.50;99.90
59847;DHT22;45728;48.788;2.302;2023-04-05T04:52:39;4.50;99.90
59847;DHT22;45728;48.788;2.302;2023-04-05T04:55:07;4.50;99.90
59847;DHT22;45728;48.788;2.302;2023-04-05T04:57:33;4.50;99.90
59847;DHT22;45728;48.788;2.302;2023-04-05T05:00:00;4.50;99.90
59847;DHT22;45728;48.788;2.302;2023-04-05T05:02:26;4.40;99.90
59847;DHT22;45728;48.788;2.302;2023-04-05T05:05:12;4.50;99.90
59847;DHT22;45728;48.788;2.302;2023-04-05T05:07:39;4.50;99.90
59847;DHT22;45728;48.788;2.302;2023-04-05T05:10:09;4.50;99.90
59847;DHT22;45728;48.788;2.302;2023-04-05T05:12:38;4.50;99.90
59847;DHT22;45728;48.788;2.302;2023-04-05T05:15:05;4.50;99.90
59847;DHT22;45728;48.788;2.302;2023-04-05T05:17:31;4.50;99.90
59847;DHT22;45728;48.788;2.302;2023-04-05T05:19:57;4.50;99.90
59847;DHT22;45728;48.788;2.302;2023-04-05T05:22:25;4.50;99.90
59847;DHT22;45728;48.788;2.302;2023-04-05T05:24:52;4.50;99.90
59847;DHT22;45728;48.788;2.302;2023-04-05T05:27:18;4.50;99.90
59847;DHT22;45728;48.788;2.302;2023-04-05T05:29:44;4.50;99.90
59847;DHT22;45728;48.788;2.302;2023-04-05T05:32:11;4.60;99.90
59847;DHT22;45728;48.788;2.302;2023-04-05T05:34:41;4.50;99.90
59847;DHT22;45728;48.788;2.302;2023-04-05T05:37:10;4.50;99.90
59847;DHT22;45728;48.788;2.302;2023-04-05T05:39:37;4.50;99.90
59847;DHT22;45728;48.788;2.302;2023-04-05T05:42:03;4.50;99.90
59847;DHT22;45728;48.788;2.302;2023-04-05T05:44:29;4.40;99.90
59847;DHT22;45728;48.788;2.302;2023-04-05T05:46:56;4.50;99.90
59847;DHT22;45728;48.788;2.302;2023-04-05T05:49:23;4.40;99.90
59847;DHT22;45728;48.788;2.302;2023-04-05T05:51:50;4.40;99.90
59847;DHT22;45728;48.788;2.302;2023-04-05T05:54:17;4.40;99.90
59847;DHT22;45728;48.788;2.302;2023-04-05T05:56:44;4.40;99.90
59847;DHT22;45728;48.788;2.302;2023-04-05T05:59:10;4.50;99.90
59847;DHT22;45728;48.788;2.302;2023-04-05T06:01:36;4.50;99.90
59847;DHT22;45728;48.788;2.302;2023-04-05T06:04:03;4.50;99.90
59847;DHT22;45728;48.788;2.302;2023-04-05T06:06:29;4.60;99.90
59847;DHT22;45728;48.788;2.302;2023-04-05T06:08:58;4.70;99.90
59847;DHT22;45728;48.788;2.302;2023-04-05T06:11:24;4.70;99.90
59847;DHT22;45728;48.788;2.302;2023-04-05T06:13:51;4.60;99.90
59847;DHT22;45728;48.788;2.302;2023-04-05T06:16:22;4.60;99.90
59847;DHT22;45728;48.788;2.302;2023-04-05T06:18:48;4.60;99.90
59847;DHT22;45728;48.788;2.302;2023-04-05T06:21:14;4.70;99.90
59847;DHT22;45728;48.788;2.302;2023-04-05T06:23:41;4.60;99.90
59847;DHT22;45728;48.788;2.302;2023-04-05T06:26:08;4.70;99.90
59847;DHT22;45728;48.788;2.302;2023-04-05T06:28:34;4.70;99.90
59847;DHT22;45728;48.788;2.302;2023-04-05T06:31:00;4.70;99.90
59847;DHT22;45728;48.788;2.302;2023-04-05T06:33:26;4.70;99.90
59847;DHT22;45728;48.788;2.302;2023-04-05T06:35:52;4.80;99.90
59847;DHT22;45728;48.788;2.302;2023-04-05T06:38:18;4.80;99.90
59847;DHT22;45728;48.788;2.302;2023-04-05T06:40:44;4.80;99.90
59847;DHT22;45728;48.788;2.302;2023-04-05T06:43:10;4.80;99.90
59847;DHT22;45728;48.788;2.302;2023-04-05T06:45:36;4.90;99.90
59847;DHT22;45728;48.788;2.302;2023-04-05T06:48:03;5.00;99.90
59847;DHT22;45728;48.788;2.302;2023-04-05T06:50:29;5.10;99.90
59847;DHT22;45728;48.788;2.302;2023-04-05T06:52:56;5.10;99.90
59847;DHT22;45728;48.788;2.302;2023-04-05T06:55:22;5.20;99.90
59847;DHT22;45728;48.788;2.302;2023-04-05T06:57:48;5.20;99.90
59847;DHT22;45728;48.788;2.302;2023-04-05T07:00:14;5.20;99.90
59847;DHT22;45728;48.788;2.302;2023-04-05T07:02:42;5.20;99.90
59847;DHT22;45728;48.788;2.302;2023-04-05T07:05:08;5.30;99.90
59847;DHT22;45728;48.788;2.302;2023-04-05T07:07:39;5.40;99.90
59847;DHT22;45728;48.788;2.302;2023-04-05T07:10:06;5.50;99.90
59847;DHT22;45728;48.788;2.302;2023-04-05T07:12:32;5.60;99.90
59847;DHT22;45728;48.788;2.302;2023-04-05T07:14:58;5.70;99.90
59847;DHT22;45728;48.788;2.302;2023-04-05T07:17:24;5.70;99.90
59847;DHT22;45728;48.788;2.302;2023-04-05T07:19:50;5.70;99.90
59847;DHT22;45728;48.788;2.302;2023-04-05T07:22:17;5.80;99.90
59847;DHT22;45728;48.788;2.302;2023-04-05T07:24:45;5.90;99.90
59847;DHT22;45728;48.788;2.302;2023-04-05T07:27:12;6.10;99.90
59847;DHT22;45728;48.788;2.302;2023-04-05T07:29:38;6.10;99.90
59847;DHT22;45728;48.788;2.302;2023-04-05T07:32:06;6.20;99.90
59847;DHT22;45728;48.788;2.302;2023-04-05T07:34:33;6.30;99.90
59847;DHT22;45728;48.788;2.302;2023-04-05T07:36:59;6.40;99.90
59847;DHT22;45728;48.788;2.302;2023-04-05T07:39:26;6.50;99.90
59847;DHT22;45728;48.788;2.302;2023-04-05T07:42:11;6.50;99.90
59847;DHT22;45728;48.788;2.302;2023-04-05T07:44:37;6.70;99.90
59847;DHT22;45728;48.788;2.302;2023-04-05T07:47:03;6.80;99.90
59847;DHT22;45728;48.788;2.302;2023-04-05T07:49:29;6.80;99.90
59847;DHT22;45728;48.788;2.302;2023-04-05T07:51:56;6.80;99.90
59847;DHT22;45728;48.788;2.302;2023-04-05T07:54:22;6.80;99.90
59847;DHT22;45728;48.788;2.302;2023-04-05T07:56:49;6.80;99.90
59847;DHT22;45728;48.788;2.302;2023-04-05T07:59:16;6.80;99.90
59847;DHT22;45728;48.788;2.302;2023-04-05T08:01:42;6.90;99.90
59847;DHT22;45728;48.788;2.302;2023-04-05T08:04:08;7.10;99.90
59847;DHT22;45728;48.788;2.302;2023-04-05T08:06:34;7.20;99.90
59847;DHT22;45728;48.788;2.302;2023-04-05T08:09:00;7.20;99.90
59847;DHT22;45728;48.788;2.302;2023-04-05T08:11:30;7.30;99.90
59847;DHT22;45728;48.788;2.302;2023-04-05T08:13:57;7.30;99.90
59847;DHT22;45728;48.788;2.302;2023-04-05T08:16:23;7.40;99.90
59847;DHT22;45728;48.788;2.302;2023-04-05T08:18:49;7.40;99.90
59847;DHT22;45728;48.788;2.302;2023-04-05T08:21:15;7.50;99.90
59847;DHT22;45728;48.788;2.302;2023-04-05T08:23:41;7.60;99.90
59847;DHT22;45728;48.788;2.302;2023-04-05T08:26:07;7.60;99.90
59847;DHT22;45728;48.788;2.302;2023-04-05T08:28:34;7.60;99.90
59847;DHT22;45728;48.788;2.302;2023-04-05T08:31:00;7.70;99.90
59847;DHT22;45728;48.788;2.302;2023-04-05T08:33:26;7.80;99.90
59847;DHT22;45728;48.788;2.302;2023-04-05T08:35:56;7.90;99.90
59847;DHT22;45728;48.788;2.302;2023-04-05T08:38:22;7.90;99.90
59847;DHT22;45728;48.788;2.302;2023-04-05T08:40:48;8.00;99.90
59847;DHT22;45728;48.788;2.302;2023-04-05T08:43:39;8.00;99.90
59847;DHT22;45728;48.788;2.302;2023-04-05T08:46:13;8.10;99.90
59847;DHT22;45728;48.788;2.302;2023-04-05T08:48:39;8.20;99.90
59847;DHT22;45728;48.788;2.302;2023-04-05T08:51:06;8.20;99.90
59847;DHT22;45728;48.788;2.302;2023-04-05T08:53:34;8.30;99.90
59847;DHT22;45728;48.788;2.302;2023-04-05T08:56:02;8.30;99.90
59847;DHT22;45728;48.788;2.302;2023-04-05T08:58:28;8.40;99.90
59847;DHT22;45728;48.788;2.302;2023-04-05T09:00:57;8.40;99.90
59847;DHT22;45728;48.788;2.302;2023-04-05T09:03:35;8.50;99.90
59847;DHT22;45728;48.788;2.302;2023-04-05T09:06:05;8.60;99.90
59847;DHT22;45728;48.788;2.302;2023-04-05T09:08:34;8.60;99.90
59847;DHT22;45728;48.788;2.302;2023-04-05T09:11:00;8.70;99.90
59847;DHT22;45728;48.788;2.302;2023-04-05T09:13:26;8.70;99.90
59847;DHT22;45728;48.788;2.302;2023-04-05T09:15:52;8.70;99.60
59847;DHT22;45728;48.788;2.302;2023-04-05T09:18:18;8.60;99.50
59847;DHT22;45728;48.788;2.302;2023-04-05T09:20:44;8.70;99.90
59847;DHT22;45728;48.788;2.302;2023-04-05T09:23:10;8.70;99.90
59847;DHT22;45728;48.788;2.302;2023-04-05T09:25:38;8.90;99.90
59847;DHT22;45728;48.788;2.302;2023-04-05T09:28:05;9.00;99.80
59847;DHT22;45728;48.788;2.302;2023-04-05T09:30:33;9.20;99.50
59847;DHT22;45728;48.788;2.302;2023-04-05T09:32:59;9.50;99.10
59847;DHT22;45728;48.788;2.302;2023-04-05T09:35:27;9.80;99.50
59847;DHT22;45728;48.788;2.302;2023-04-05T09:37:56;10.10;98.80
59847;DHT22;45728;48.788;2.302;2023-04-05T09:40:22;10.10;99.10
59847;DHT22;45728;48.788;2.302;2023-04-05T09:42:49;10.50;99.90
59847;DHT22;45728;48.788;2.302;2023-04-05T09:45:17;10.70;99.30
59847;DHT22;45728;48.788;2.302;2023-04-05T09:47:53;10.90;97.30
59847;DHT22;45728;48.788;2.302;2023-04-05T09:50:19;10.20;97.30
59847;DHT22;45728;48.788;2.302;2023-04-05T09:52:46;10.10;97.40
59847;DHT22;45728;48.788;2.302;2023-04-05T09:55:13;10.30;97.90
59847;DHT22;45728;48.788;2.302;2023-04-05T09:57:40;11.00;97.30
59847;DHT22;45728;48.788;2.302;2023-04-05T10:00:19;11.20;95.20
59847;DHT22;45728;48.788;2.302;2023-04-05T10:02:46;11.10;94.30
59847;DHT22;45728;48.788;2.302;2023-04-05T10:05:12;10.90;94.70
59847;DHT22;45728;48.788;2.302;2023-04-05T10:07:41;10.90;94.90
59847;DHT22;45728;48.788;2.302;2023-04-05T10:10:08;10.80;94.40
59847;DHT22;45728;48.788;2.302;2023-04-05T10:12:37;10.60;94.60
59847;DHT22;45728;48.788;2.302;2023-04-05T10:15:04;11.00;94.80
59847;DHT22;45728;48.788;2.302;2023-04-05T10:18:23;11.40;94.00
59847;DHT22;45728;48.788;2.302;2023-04-05T10:20:44;11.30;93.60
59847;DHT22;45728;48.788;2.302;2023-04-05T10:23:18;11.20;93.00
59847;DHT22;45728;48.788;2.302;2023-04-05T10:28:34;11.50;93.10
59847;DHT22;45728;48.788;2.302;2023-04-05T10:33:43;11.60;92.80
59847;DHT22;45728;48.788;2.302;2023-04-05T10:39:12;11.70;92.20
59847;DHT22;45728;48.788;2.302;2023-04-05T10:41:50;11.90;92.10
59847;DHT22;45728;48.788;2.302;2023-04-05T10:44:17;11.90;92.30
59847;DHT22;45728;48.788;2.302;2023-04-05T10:46:45;11.80;92.20
59847;DHT22;45728;48.788;2.302;2023-04-05T10:52:02;12.10;91.40
59847;DHT22;45728;48.788;2.302;2023-04-05T10:54:32;12.00;91.20
59847;DHT22;45728;48.788;2.302;2023-04-05T10:56:58;11.70;90.80
59847;DHT22;45728;48.788;2.302;2023-04-05T10:59:26;11.80;91.90
59847;DHT22;45728;48.788;2.302;2023-04-05T11:01:53;12.80;92.00
59847;DHT22;45728;48.788;2.302;2023-04-05T11:04:19;13.30;91.80
59847;DHT22;45728;48.788;2.302;2023-04-05T11:06:46;12.70;90.50
59847;DHT22;45728;48.788;2.302;2023-04-05T11:09:17;12.30;90.80
59847;DHT22;45728;48.788;2.302;2023-04-05T11:11:46;12.20;90.70
59847;DHT22;45728;48.788;2.302;2023-04-05T11:14:18;12.90;90.60
59847;DHT22;45728;48.788;2.302;2023-04-05T11:16:49;13.40;90.40
59847;DHT22;45728;48.788;2.302;2023-04-05T11:19:18;13.80;90.50
59847;DHT22;45728;48.788;2.302;2023-04-05T11:21:44;14.00;89.80
59847;DHT22;45728;48.788;2.302;2023-04-05T11:24:12;14.30;88.10
59847;DHT22;45728;48.788;2.302;2023-04-05T11:29:09;13.60;87.10
59847;DHT22;45728;48.788;2.302;2023-04-05T11:31:56;13.50;87.00
59847;DHT22;45728;48.788;2.302;2023-04-05T11:34:23;13.60;84.20
59847;DHT22;45728;48.788;2.302;2023-04-05T11:36:49;13.20;84.80
59847;DHT22;45728;48.788;2.302;2023-04-05T11:42:10;12.90;85.20
59847;DHT22;45728;48.788;2.302;2023-04-05T11:47:05;12.70;84.20
59847;DHT22;45728;48.788;2.302;2023-04-05T11:49:32;12.60;83.00
59847;DHT22;45728;48.788;2.302;2023-04-05T11:52:12;13.00;82.10
59847;DHT22;45728;48.788;2.302;2023-04-05T11:54:39;13.30;81.10
59847;DHT22;45728;48.788;2.302;2023-04-05T11:57:18;13.60;82.60
59847;DHT22;45728;48.788;2.302;2023-04-05T11:59:44;13.60;79.90
59847;DHT22;45728;48.788;2.302;2023-04-05T12:02:11;13.40;79.90
59847;DHT22;45728;48.788;2.302;2023-04-05T12:04:38;13.10;79.80
59847;DHT22;45728;48.788;2.302;2023-04-05T12:07:16;13.20;79.30
59847;DHT22;45728;48.788;2.302;2023-04-05T12:09:58;13.40;78.30
59847;DHT22;45728;48.788;2.302;2023-04-05T12:12:24;13.30;77.60
59847;DHT22;45728;48.788;2.302;2023-04-05T12:14:50;13.50;78.80
59847;DHT22;45728;48.788;2.302;2023-04-05T12:17:16;13.30;78.60
59847;DHT22;45728;48.788;2.302;2023-04-05T12:19:42;13.60;78.10
59847;DHT22;45728;48.788;2.302;2023-04-05T12:22:09;13.50;77.40
59847;DHT22;45728;48.788;2.302;2023-04-05T12:24:35;13.50;77.70
59847;DHT22;45728;48.788;2.302;2023-04-05T12:27:01;14.10;80.00
59847;DHT22;45728;48.788;2.302;2023-04-05T12:29:27;15.00;79.90
59847;DHT22;45728;48.788;2.302;2023-04-05T12:31:54;15.00;79.70
59847;DHT22;45728;48.788;2.302;2023-04-05T12:34:23;15.10;75.60
59847;DHT22;45728;48.788;2.302;2023-04-05T12:36:52;15.30;76.60
59847;DHT22;45728;48.788;2.302;2023-04-05T12:39:20;15.00;77.10
59847;DHT22;45728;48.788;2.302;2023-04-05T12:41:57;14.90;76.80
59847;DHT22;45728;48.788;2.302;2023-04-05T12:44:30;14.40;76.40
59847;DHT22;45728;48.788;2.302;2023-04-05T12:47:00;14.30;76.30
59847;DHT22;45728;48.788;2.302;2023-04-05T12:49:38;14.10;76.20
59847;DHT22;45728;48.788;2.302;2023-04-05T12:52:04;14.80;78.50
59847;DHT22;45728;48.788;2.302;2023-04-05T12:54:30;15.30;76.70
59847;DHT22;45728;48.788;2.302;2023-04-05T12:56:57;15.50;75.90
59847;DHT22;45728;48.788;2.302;2023-04-05T12:59:23;15.00;76.70
59847;DHT22;45728;48.788;2.302;2023-04-05T13:01:49;15.30;77.20
59847;DHT22;45728;48.788;2.302;2023-04-05T13:04:16;15.40;77.10
59847;DHT22;45728;48.788;2.302;2023-04-05T13:06:42;15.40;75.80
59847;DHT22;45728;48.788;2.302;2023-04-05T13:09:08;14.80;76.40
59847;DHT22;45728;48.788;2.302;2023-04-05T13:11:34;14.80;76.30
59847;DHT22;45728;48.788;2.302;2023-04-05T13:14:00;14.50;75.80
59847;DHT22;45728;48.788;2.302;2023-04-05T13:16:27;14.70;78.20
59847;DHT22;45728;48.788;2.302;2023-04-05T13:18:53;15.50;77.50
59847;DHT22;45728;48.788;2.302;2023-04-05T13:21:19;16.00;77.30
59847;DHT22;45728;48.788;2.302;2023-04-05T13:23:45;15.90;75.10
59847;DHT22;45728;48.788;2.302;2023-04-05T13:26:11;15.50;74.80
59847;DHT22;45728;48.788;2.302;2023-04-05T13:28:37;15.30;75.20
59847;DHT22;45728;48.788;2.302;2023-04-05T13:31:03;15.30;75.40
59847;DHT22;45728;48.788;2.302;2023-04-05T13:33:32;15.20;76.30
59847;DHT22;45728;48.788;2.302;2023-04-05T13:35:58;15.30;76.00
59847;DHT22;45728;48.788;2.302;2023-04-05T13:38:24;14.90;75.60
59847;DHT22;45728;48.788;2.302;2023-04-05T13:40:50;14.80;76.00
59847;DHT22;45728;48.788;2.302;2023-04-05T13:43:16;14.40;76.10
59847;DHT22;45728;48.788;2.302;2023-04-05T13:45:42;15.00;77.20
59847;DHT22;45728;48.788;2.302;2023-04-05T13:48:08;15.60;76.40
59847;DHT22;45728;48.788;2.302;2023-04-05T13:50:34;16.00;75.70
59847;DHT22;45728;48.788;2.302;2023-04-05T13:53:01;15.60;75.00
59847;DHT22;45728;48.788;2.302;2023-04-05T13:55:27;15.30;75.10
59847;DHT22;45728;48.788;2.302;2023-04-05T13:57:53;15.30;75.40
59847;DHT22;45728;48.788;2.302;2023-04-05T14:00:19;15.30;77.00
59847;DHT22;45728;48.788;2.302;2023-04-05T14:02:45;15.90;77.40
59847;DHT22;45728;48.788;2.302;2023-04-05T14:05:12;15.90;75.20
59847;DHT22;45728;48.788;2.302;2023-04-05T14:07:38;15.40;76.70
59847;DHT22;45728;48.788;2.302;2023-04-05T14:10:04;15.70;77.40
59847;DHT22;45728;48.788;2.302;2023-04-05T14:12:32;15.90;75.60
59847;DHT22;45728;48.788;2.302;2023-04-05T14:14:58;15.90;75.80
59847;DHT22;45728;48.788;2.302;2023-04-05T14:17:25;15.70;75.00
59847;DHT22;45728;48.788;2.302;2023-04-05T14:19:51;15.20;75.00
59847;DHT22;45728;48.788;2.302;2023-04-05T14:22:17;15.10;75.80
59847;DHT22;45728;48.788;2.302;2023-04-05T14:24:43;15.20;75.60
59847;DHT22;45728;48.788;2.302;2023-04-05T14:27:09;15.70;76.10
59847;DHT22;45728;48.788;2.302;2023-04-05T14:29:35;16.20;75.70
59847;DHT22;45728;48.788;2.302;2023-04-05T14:32:01;16.10;74.60
59847;DHT22;45728;48.788;2.302;2023-04-05T14:34:27;16.00;74.60
59847;DHT22;45728;48.788;2.302;2023-04-05T14:36:53;15.50;75.20
59847;DHT22;45728;48.788;2.302;2023-04-05T14:39:23;15.40;76.50
59847;DHT22;45728;48.788;2.302;2023-04-05T14:41:49;15.50;76.40
59847;DHT22;45728;48.788;2.302;2023-04-05T14:44:17;15.70;76.10
59847;DHT22;45728;48.788;2.302;2023-04-05T14:46:43;16.10;76.60
59847;DHT22;45728;48.788;2.302;2023-04-05T14:49:09;16.40;74.70
59847;DHT22;45728;48.788;2.302;2023-04-05T14:51:35;16.40;74.80
59847;DHT22;45728;48.788;2.302;2023-04-05T14:54:02;16.20;75.00
59847;DHT22;45728;48.788;2.302;2023-04-05T14:56:28;15.70;75.00
59847;DHT22;45728;48.788;2.302;2023-04-05T14:58:54;15.60;74.90
59847;DHT22;45728;48.788;2.302;2023-04-05T15:01:20;15.80;74.80
59847;DHT22;45728;48.788;2.302;2023-04-05T15:03:46;15.70;73.80
59847;DHT22;45728;48.788;2.302;2023-04-05T15:06:13;15.60;74.70
59847;DHT22;45728;48.788;2.302;2023-04-05T15:08:39;15.60;74.30
59847;DHT22;45728;48.788;2.302;2023-04-05T15:11:05;16.00;74.50
59847;DHT22;45728;48.788;2.302;2023-04-05T15:13:31;16.20;74.30
59847;DHT22;45728;48.788;2.302;2023-04-05T15:15:58;15.90;73.40
59847;DHT22;45728;48.788;2.302;2023-04-05T15:18:24;15.50;74.20
59847;DHT22;45728;48.788;2.302;2023-04-05T15:20:50;15.40;74.10
59847;DHT22;45728;48.788;2.302;2023-04-05T15:23:18;15.30;74.10
59847;DHT22;45728;48.788;2.302;2023-04-05T15:25:44;15.30;74.30
59847;DHT22;45728;48.788;2.302;2023-04-05T15:28:10;15.50;73.80
59847;DHT22;45728;48.788;2.302;2023-04-05T15:30:37;15.80;74.90
59847;DHT22;45728;48.788;2.302;2023-04-05T15:33:03;16.20;74.40
59847;DHT22;45728;48.788;2.302;2023-04-05T15:35:29;15.80;74.40
59847;DHT22;45728;48.788;2.302;2023-04-05T15:37:55;15.60;75.50
59847;DHT22;45728;48.788;2.302;2023-04-05T15:40:21;15.60;75.10
59847;DHT22;45728;48.788;2.302;2023-04-05T15:42:47;15.90;72.30
59847;DHT22;45728;48.788;2.302;2023-04-05T15:45:32;15.80;73.60
59847;DHT22;45728;48.788;2.302;2023-04-05T15:47:58;15.80;71.80
59847;DHT22;45728;48.788;2.302;2023-04-05T15:50:24;15.80;71.30
59847;DHT22;45728;48.788;2.302;2023-04-05T15:52:51;16.00;68.80
59847;DHT22;45728;48.788;2.302;2023-04-05T15:55:17;16.00;69.00
59847;DHT22;45728;48.788;2.302;2023-04-05T15:57:43;15.90;69.10
59847;DHT22;45728;48.788;2.302;2023-04-05T16:00:10;15.60;69.30
59847;DHT22;45728;48.788;2.302;2023-04-05T16:02:36;15.90;69.80
59847;DHT22;45728;48.788;2.302;2023-04-05T16:05:03;15.80;69.00
59847;DHT22;45728;48.788;2.302;2023-04-05T16:07:29;15.50;68.10
59847;DHT22;45728;48.788;2.302;2023-04-05T16:09:56;15.50;68.80
59847;DHT22;45728;48.788;2.302;2023-04-05T16:12:22;15.80;68.40
59847;DHT22;45728;48.788;2.302;2023-04-05T16:14:48;15.60;66.70
59847;DHT22;45728;48.788;2.302;2023-04-05T16:17:15;15.70;67.20
59847;DHT22;45728;48.788;2.302;2023-04-05T16:19:41;15.50;66.20
59847;DHT22;45728;48.788;2.302;2023-04-05T16:22:07;15.30;66.70